Terminal Aerodrome Forecast
Issued by NWS

Home | Current Version | Previous Version | Text Only | Print | Product List | Glossary On
Versions: 1 2 3 4 5 6 7 8 9 10 11 12 13 14 15 16 17 18 19 20 21 22 23 24 25 26 27 28 29 30 31 32 33 34
000
FTUS42 KJAX 211554 AAC
TAFCRG
TAF AMD
KCRG 211554Z 2116/2212 13008KT P6SM SCT050 BKN250
     FM220300 13004KT P6SM BKN040 OVC200
     FM220900 12004KT 4SM BR VCSH SCT025 BKN030=

USA.gov is the U.S. government's official web portal to all federal, state and local government web resources and services.